createdAt,value
2019-02-23T00:00:12.522Z,2.5
2019-02-23T00:01:10.325Z,2.2
2019-02-23T00:02:11.672Z,2.5
2019-02-23T00:03:10.767Z,2.6
2019-02-23T00:04:10.520Z,2.3
2019-02-23T00:05:10.252Z,2.3
2019-02-23T00:06:10.706Z,2.4
2019-02-23T00:07:10.433Z,2.3
2019-02-23T00:08:10.312Z,2.1
2019-02-23T00:09:10.743Z,2.4
2019-02-23T00:10:10.296Z,2.6
2019-02-23T00:11:10.634Z,2.3
2019-02-23T00:12:10.456Z,2.3
2019-02-23T00:13:10.781Z,2.4
2019-02-23T00:14:10.268Z,2.5
2019-02-23T00:15:10.333Z,2.4
2019-02-23T00:16:10.299Z,2.4
2019-02-23T00:17:10.402Z,2.2
2019-02-23T00:18:12.532Z,2.5
2019-02-23T00:19:10.668Z,2.5
2019-02-23T00:20:10.726Z,2.5
2019-02-23T00:21:10.310Z,2.4
2019-02-23T00:22:10.571Z,2.5
2019-02-23T00:23:10.579Z,2.4
2019-02-23T00:24:10.279Z,2.3
2019-02-23T00:25:10.274Z,2.5
2019-02-23T00:26:10.312Z,2.5
2019-02-23T00:27:10.566Z,2.4
2019-02-23T00:28:10.831Z,2.1
2019-02-23T00:29:10.441Z,2.6
2019-02-23T00:30:10.487Z,2.2
2019-02-23T00:31:10.755Z,2.2
2019-02-23T00:32:10.336Z,2.3
2019-02-23T00:33:10.281Z,2.2
2019-02-23T00:34:10.813Z,2.2
2019-02-23T00:35:10.483Z,2.4
2019-02-23T00:36:10.352Z,2.3
2019-02-23T00:37:10.864Z,2.5
2019-02-23T00:38:10.310Z,2.4
2019-02-23T00:39:10.612Z,2.6
2019-02-23T00:40:10.314Z,2.4
2019-02-23T00:41:10.542Z,2.1
2019-02-23T00:42:10.403Z,2.4
2019-02-23T00:43:10.829Z,2.2
2019-02-23T00:44:10.802Z,2.2
2019-02-23T00:45:10.725Z,2.1
2019-02-23T00:46:10.718Z,2.6
2019-02-23T00:47:10.363Z,2.2
2019-02-23T00:48:20.653Z,2.3
2019-02-23T00:49:10.341Z,2.3
2019-02-23T00:50:10.759Z,2.1
2019-02-23T00:51:10.353Z,2.5
2019-02-23T00:52:10.650Z,2.6
2019-02-23T00:53:10.511Z,2.3
2019-02-23T00:54:10.292Z,2.3
2019-02-23T00:55:10.348Z,2.4
2019-02-23T00:56:10.635Z,2.4
2019-02-23T00:57:10.497Z,2.0
2019-02-23T00:58:10.303Z,2.1
2019-02-23T00:59:10.520Z,2.1
2019-02-23T01:00:10.363Z,2.1
2019-02-23T01:01:10.541Z,2.2
2019-02-23T01:02:11.953Z,2.2
2019-02-23T01:03:10.375Z,2.3
2019-02-23T01:04:10.398Z,2.0
2019-02-23T01:05:10.785Z,2.2
2019-02-23T01:06:10.521Z,2.4
2019-02-23T01:07:11.032Z,2.4
2019-02-23T01:08:10.684Z,2.0
2019-02-23T01:09:10.476Z,2.2
2019-02-23T01:10:10.534Z,2.2
2019-02-23T01:11:11.003Z,2.3
2019-02-23T01:12:10.445Z,2.4
2019-02-23T01:13:10.603Z,2.1
2019-02-23T01:14:10.408Z,2.4
2019-02-23T01:15:10.894Z,2.4
2019-02-23T01:16:10.438Z,2.5
2019-02-23T01:17:10.437Z,2.0
2019-02-23T01:18:10.471Z,2.3
2019-02-23T01:19:10.889Z,2.2
2019-02-23T01:20:10.419Z,2.3
2019-02-23T01:21:10.371Z,2.2
2019-02-23T01:22:11.328Z,2.1
2019-02-23T01:23:10.847Z,2.1
2019-02-23T01:24:10.474Z,2.2
2019-02-23T01:25:10.427Z,2.1
2019-02-23T01:26:10.842Z,2.1
2019-02-23T01:27:10.437Z,2.4
2019-02-23T01:28:10.444Z,2.3
2019-02-23T01:29:10.418Z,1.9
2019-02-23T01:30:10.651Z,2.5
2019-02-23T01:31:11.852Z,2.2
2019-02-23T01:32:10.476Z,1.9
2019-02-23T01:33:12.587Z,2.3
2019-02-23T01:34:10.515Z,2.2
2019-02-23T01:35:10.498Z,2.3
2019-02-23T01:36:10.637Z,2.4
2019-02-23T01:37:10.493Z,2.2
2019-02-23T01:38:10.474Z,2.2
2019-02-23T01:39:10.456Z,2.2
2019-02-23T01:40:10.486Z,2.1
2019-02-23T01:41:10.616Z,2.2
2019-02-23T01:42:10.439Z,2.2
2019-02-23T01:43:10.631Z,2.6
2019-02-23T01:44:10.465Z,2.2
2019-02-23T01:45:10.959Z,2.4
2019-02-23T01:46:10.522Z,1.9
2019-02-23T01:47:10.878Z,2.4
2019-02-23T01:48:10.916Z,2.1
2019-02-23T01:49:10.453Z,2.3
2019-02-23T01:50:11.530Z,2.1
2019-02-23T01:51:12.155Z,2.4
2019-02-23T01:52:10.681Z,1.9
2019-02-23T01:53:10.823Z,2.0
2019-02-23T01:54:10.484Z,2.0
2019-02-23T01:55:10.440Z,1.9
2019-02-23T01:56:10.500Z,1.9
2019-02-23T01:57:10.493Z,2.0
2019-02-23T01:58:10.441Z,1.8
2019-02-23T01:59:10.479Z,2.0
2019-02-23T02:00:10.700Z,2.3
2019-02-23T02:01:20.901Z,2.0
2019-02-23T02:02:10.653Z,2.0
2019-02-23T02:03:10.459Z,2.5
2019-02-23T02:04:10.484Z,2.2
2019-02-23T02:05:10.552Z,2.9
2019-02-23T02:06:10.740Z,2.3
2019-02-23T02:07:10.705Z,2.0
2019-02-23T02:08:10.708Z,2.1
2019-02-23T02:09:10.601Z,2.0
2019-02-23T02:10:10.607Z,1.9
2019-02-23T02:11:10.545Z,2.0
2019-02-23T02:12:10.829Z,2.0
2019-02-23T02:13:10.520Z,1.9
2019-02-23T02:14:10.740Z,2.2
2019-02-23T02:15:10.662Z,2.1
2019-02-23T02:16:11.167Z,2.2
2019-02-23T02:17:10.530Z,1.9
2019-02-23T02:18:10.570Z,2.5
2019-02-23T02:19:10.913Z,2.0
2019-02-23T02:20:11.539Z,2.0
2019-02-23T02:21:10.744Z,2.0
2019-02-23T02:22:10.663Z,2.0
2019-02-23T02:23:10.928Z,2.1
2019-02-23T02:24:10.521Z,2.2
2019-02-23T02:25:10.570Z,2.0
2019-02-23T02:26:10.479Z,2.1
2019-02-23T02:27:10.570Z,2.1
2019-02-23T02:28:10.595Z,2.4
2019-02-23T02:29:10.504Z,2.1
2019-02-23T02:30:11.108Z,1.9
2019-02-23T02:31:11.072Z,2.0
2019-02-23T02:32:10.737Z,2.2
2019-02-23T02:33:10.549Z,1.9
2019-02-23T02:34:10.612Z,1.9
2019-02-23T02:35:10.559Z,2.1
2019-02-23T02:36:10.757Z,1.9
2019-02-23T02:37:11.037Z,1.9
2019-02-23T02:38:10.630Z,2.0
2019-02-23T02:39:10.957Z,1.9
2019-02-23T02:40:10.578Z,2.3
2019-02-23T02:41:10.643Z,1.9
2019-02-23T02:42:11.005Z,2.2
2019-02-23T02:43:10.916Z,2.0
2019-02-23T02:44:11.114Z,2.0
2019-02-23T02:45:10.797Z,2.3
2019-02-23T02:46:10.807Z,1.8
2019-02-23T02:47:11.183Z,2.2
2019-02-23T02:48:10.768Z,1.9
2019-02-23T02:49:10.596Z,2.2
2019-02-23T02:50:23.109Z,2.1
2019-02-23T02:51:10.539Z,2.2
2019-02-23T02:52:10.693Z,2.0
2019-02-23T02:53:11.019Z,2.0
2019-02-23T02:54:11.007Z,2.2
2019-02-23T02:55:10.646Z,1.9
2019-02-23T02:56:11.080Z,1.9
2019-02-23T02:57:10.532Z,2.1
2019-02-23T02:58:11.667Z,1.9
2019-02-23T02:59:10.498Z,2.2
2019-02-23T03:00:10.752Z,2.5
2019-02-23T03:01:10.811Z,2.4
2019-02-23T03:02:11.214Z,2.1
2019-02-23T03:03:10.859Z,1.9
2019-02-23T03:04:10.669Z,2.3
2019-02-23T03:05:11.360Z,2.1
2019-02-23T03:06:11.864Z,2.0
2019-02-23T03:07:10.897Z,2.2
2019-02-23T03:08:10.687Z,2.2
2019-02-23T03:09:11.054Z,3.2
2019-02-23T03:10:10.712Z,2.2
2019-02-23T03:11:10.589Z,2.3
2019-02-23T03:12:11.123Z,2.3
2019-02-23T03:13:10.684Z,2.1
2019-02-23T03:14:10.860Z,2.1
2019-02-23T03:15:10.696Z,2.2
2019-02-23T03:16:10.789Z,2.3
2019-02-23T03:17:11.685Z,2.3
2019-02-23T03:18:11.081Z,2.4
2019-02-23T03:19:10.804Z,2.4
2019-02-23T03:20:10.796Z,2.2
2019-02-23T03:21:12.027Z,2.4
2019-02-23T03:22:11.219Z,2.2
2019-02-23T03:23:11.216Z,2.4
2019-02-23T03:24:11.759Z,2.2
2019-02-23T03:25:10.989Z,2.5
2019-02-23T03:26:12.094Z,2.2
2019-02-23T03:27:10.606Z,2.2
2019-02-23T03:28:10.900Z,2.0
2019-02-23T03:29:11.062Z,2.3
2019-02-23T03:30:10.744Z,2.4
2019-02-23T03:31:10.687Z,2.4
2019-02-23T03:32:10.806Z,2.3
2019-02-23T03:33:10.923Z,2.3
2019-02-23T03:34:10.761Z,2.5
2019-02-23T03:35:11.091Z,2.7
2019-02-23T03:36:10.683Z,2.3
2019-02-23T03:37:11.280Z,2.3
2019-02-23T03:38:10.692Z,2.2
2019-02-23T03:39:10.716Z,2.5
2019-02-23T03:40:11.711Z,2.5
2019-02-23T03:41:10.681Z,2.6
2019-02-23T03:42:11.387Z,2.6
2019-02-23T03:43:11.713Z,2.4
2019-02-23T03:44:11.691Z,2.6
2019-02-23T03:45:10.782Z,2.4
2019-02-23T03:46:10.677Z,2.5
2019-02-23T03:47:10.696Z,2.5
2019-02-23T03:48:10.957Z,2.3
2019-02-23T03:49:11.136Z,2.1
2019-02-23T03:50:11.245Z,2.4
2019-02-23T03:51:10.898Z,2.2
2019-02-23T03:52:10.820Z,2.5
2019-02-23T03:53:11.143Z,2.5
2019-02-23T03:54:10.742Z,2.2
2019-02-23T03:55:10.722Z,2.5
2019-02-23T03:56:10.903Z,2.6
2019-02-23T03:57:10.720Z,2.6
2019-02-23T03:58:10.726Z,2.1
2019-02-23T03:59:11.129Z,2.3
2019-02-23T04:00:10.671Z,2.5
2019-02-23T04:01:10.730Z,2.5
2019-02-23T04:02:11.227Z,2.1
2019-02-23T04:03:11.084Z,2.6
2019-02-23T04:04:11.157Z,2.5
2019-02-23T04:05:11.165Z,2.3
2019-02-23T04:06:11.158Z,2.5
2019-02-23T04:07:10.813Z,2.3
2019-02-23T04:08:10.713Z,2.2
2019-02-23T04:09:10.727Z,2.6
2019-02-23T04:10:11.866Z,2.3
2019-02-23T04:11:11.004Z,2.6
2019-02-23T04:12:10.751Z,2.5
2019-02-23T04:13:11.392Z,2.6
2019-02-23T04:14:10.739Z,2.2
2019-02-23T04:15:10.756Z,2.4
2019-02-23T04:16:10.727Z,2.5
2019-02-23T04:17:11.185Z,2.7
2019-02-23T04:18:11.532Z,2.5
2019-02-23T04:19:10.782Z,2.7
2019-02-23T04:20:10.804Z,2.5
2019-02-23T04:21:10.766Z,2.5
2019-02-23T04:22:10.788Z,2.4
2019-02-23T04:23:10.897Z,2.5
2019-02-23T04:24:10.692Z,2.6
2019-02-23T04:25:11.276Z,2.4
2019-02-23T04:26:10.799Z,2.5
2019-02-23T04:27:10.706Z,2.3
2019-02-23T04:28:20.809Z,2.6
2019-02-23T04:29:11.204Z,2.7
2019-02-23T04:30:11.243Z,3.2
2019-02-23T04:31:10.995Z,2.7
2019-02-23T04:32:10.778Z,2.6
2019-02-23T04:33:10.743Z,2.5
2019-02-23T04:34:10.920Z,2.7
2019-02-23T04:35:10.740Z,2.7
2019-02-23T04:36:10.976Z,2.6
2019-02-23T04:37:11.001Z,2.9
2019-02-23T04:38:10.780Z,2.5
2019-02-23T04:39:10.815Z,2.6
2019-02-23T04:40:10.665Z,2.7
2019-02-23T04:41:11.212Z,2.7
2019-02-23T04:42:11.186Z,3.1
2019-02-23T04:43:10.796Z,2.7
2019-02-23T04:44:10.864Z,2.7
2019-02-23T04:45:10.998Z,2.7
2019-02-23T04:46:11.252Z,2.8
2019-02-23T04:47:10.995Z,2.5
2019-02-23T04:48:10.976Z,2.7
2019-02-23T04:49:10.953Z,2.6
2019-02-23T04:50:10.745Z,2.7
2019-02-23T04:51:14.380Z,2.5
2019-02-23T04:52:10.878Z,2.7
2019-02-23T04:53:11.302Z,2.7
2019-02-23T04:54:10.834Z,2.7
2019-02-23T04:55:10.792Z,2.7
2019-02-23T04:56:10.793Z,2.6
2019-02-23T04:57:11.600Z,2.7
2019-02-23T04:58:10.770Z,2.7
2019-02-23T04:59:10.946Z,2.7
2019-02-23T05:00:10.799Z,2.8
2019-02-23T05:01:10.785Z,2.7
2019-02-23T05:02:10.721Z,2.8
2019-02-23T05:03:11.195Z,2.9
2019-02-23T05:04:11.221Z,2.8
2019-02-23T05:05:10.773Z,2.8
2019-02-23T05:06:12.833Z,3.1
2019-02-23T05:07:10.860Z,2.5
2019-02-23T05:08:11.045Z,2.6
2019-02-23T05:09:10.811Z,2.9
2019-02-23T05:10:10.886Z,3.0
2019-02-23T05:11:10.902Z,2.6
2019-02-23T05:12:10.814Z,2.3
2019-02-23T05:13:10.824Z,2.6
2019-02-23T05:14:11.280Z,2.9
2019-02-23T05:15:11.262Z,2.9
2019-02-23T05:16:11.870Z,2.9
2019-02-23T05:17:11.054Z,2.7
2019-02-23T05:18:10.889Z,3.0
2019-02-23T05:19:11.290Z,3.0
2019-02-23T05:20:10.869Z,2.8
2019-02-23T05:21:11.328Z,2.8
2019-02-23T05:22:10.976Z,3.1
2019-02-23T05:23:10.798Z,2.9
2019-02-23T05:24:10.916Z,2.7
2019-02-23T05:25:10.864Z,3.1
2019-02-23T05:26:10.986Z,2.7
2019-02-23T05:27:10.812Z,2.9
2019-02-23T05:28:10.842Z,2.9
2019-02-23T05:29:10.868Z,2.7
2019-02-23T05:30:11.137Z,3.0
2019-02-23T05:31:10.863Z,2.7
2019-02-23T05:32:10.887Z,3.0
2019-02-23T05:33:11.190Z,3.2
2019-02-23T05:34:11.129Z,2.9
2019-02-23T05:35:11.107Z,2.9
2019-02-23T05:36:11.098Z,3.1
2019-02-23T05:37:11.292Z,3.0
2019-02-23T05:38:10.843Z,2.9
2019-02-23T05:39:10.990Z,2.9
2019-02-23T05:40:10.872Z,2.9
2019-02-23T05:41:11.133Z,2.7
2019-02-23T05:42:10.861Z,3.1
2019-02-23T05:43:11.384Z,2.9
2019-02-23T05:44:11.373Z,2.7
2019-02-23T05:45:11.159Z,2.6
2019-02-23T05:46:11.294Z,2.8
2019-02-23T05:47:11.071Z,2.8
2019-02-23T05:48:10.910Z,2.9
2019-02-23T05:49:11.520Z,3.1
2019-02-23T05:50:10.866Z,2.9
2019-02-23T05:51:10.974Z,3.1
2019-02-23T05:52:11.014Z,3.1
2019-02-23T05:53:11.045Z,2.9
2019-02-23T05:54:10.919Z,3.0
2019-02-23T05:55:10.958Z,3.5
2019-02-23T05:56:15.190Z,3.0
2019-02-23T05:57:11.049Z,3.0
2019-02-23T05:58:11.323Z,2.8
2019-02-23T05:59:11.085Z,3.6
2019-02-23T06:00:11.510Z,3.2
2019-02-23T06:01:11.548Z,2.8
2019-02-23T06:02:11.135Z,3.1
2019-02-23T06:03:11.487Z,3.3
2019-02-23T06:04:10.991Z,2.9
2019-02-23T06:05:11.830Z,3.0
2019-02-23T06:06:27.617Z,2.9
2019-02-23T06:07:11.512Z,2.7
2019-02-23T06:08:10.864Z,2.8
2019-02-23T06:09:11.401Z,2.9
2019-02-23T06:10:10.939Z,2.9
2019-02-23T06:11:11.385Z,3.0
2019-02-23T06:12:10.918Z,3.1
2019-02-23T06:13:11.102Z,3.3
2019-02-23T06:14:10.923Z,2.7
2019-02-23T06:15:10.908Z,3.0
2019-02-23T06:16:11.176Z,3.1
2019-02-23T06:17:10.968Z,2.9
2019-02-23T06:18:11.452Z,3.0
2019-02-23T06:19:10.945Z,3.0
2019-02-23T06:20:10.956Z,2.8
2019-02-23T06:21:11.461Z,2.9
2019-02-23T06:22:11.243Z,3.0
2019-02-23T06:23:10.931Z,4.2
2019-02-23T06:24:11.478Z,3.2
2019-02-23T06:25:21.169Z,3.0
2019-02-23T06:26:11.346Z,2.9
2019-02-23T06:27:11.421Z,3.2
2019-02-23T06:28:11.112Z,2.9
2019-02-23T06:29:10.989Z,2.9
2019-02-23T06:30:11.008Z,3.0
2019-02-23T06:31:11.151Z,3.2
2019-02-23T06:32:11.407Z,3.0
2019-02-23T06:33:11.375Z,3.3
2019-02-23T06:34:15.531Z,2.9
2019-02-23T06:35:11.381Z,3.1
2019-02-23T06:36:11.351Z,3.1
2019-02-23T06:37:11.291Z,2.9
2019-02-23T06:38:11.263Z,2.9
2019-02-23T06:39:11.030Z,2.9
2019-02-23T06:40:11.060Z,3.1
2019-02-23T06:41:10.948Z,2.8
2019-02-23T06:42:11.168Z,3.2
2019-02-23T06:43:11.537Z,3.2
2019-02-23T06:44:11.170Z,3.1
2019-02-23T06:45:11.537Z,2.9
2019-02-23T06:46:12.163Z,3.0
2019-02-23T06:47:11.470Z,3.0
2019-02-23T06:48:11.096Z,3.4
2019-02-23T06:49:11.852Z,3.0
2019-02-23T06:50:12.129Z,2.8
2019-02-23T06:51:11.180Z,3.0
2019-02-23T06:52:12.721Z,3.3
2019-02-23T06:53:11.600Z,2.7
2019-02-23T06:54:11.525Z,3.1
2019-02-23T06:55:11.135Z,2.9
2019-02-23T06:56:11.496Z,3.1
2019-02-23T06:57:11.111Z,2.8
2019-02-23T06:58:11.039Z,3.0
2019-02-23T06:59:11.171Z,3.2
2019-02-23T07:00:11.497Z,2.9
2019-02-23T07:01:12.265Z,3.2
2019-02-23T07:02:11.217Z,3.4
2019-02-23T07:03:12.321Z,3.5
2019-02-23T07:04:11.220Z,4.8
2019-02-23T07:05:11.598Z,4.3
2019-02-23T07:06:11.217Z,4.2
2019-02-23T07:07:11.297Z,5.1
2019-02-23T07:08:11.332Z,3.8
2019-02-23T07:09:11.838Z,4.9
2019-02-23T07:10:11.852Z,5.4
2019-02-23T07:11:11.168Z,4.1
2019-02-23T07:12:11.160Z,3.9
2019-02-23T07:13:11.314Z,3.5
2019-02-23T07:14:11.156Z,5.1
2019-02-23T07:15:11.161Z,4.0
2019-02-23T07:16:11.336Z,3.6
2019-02-23T07:17:11.236Z,3.4
2019-02-23T07:18:11.595Z,4.2
2019-02-23T07:19:11.136Z,4.1
2019-02-23T07:20:11.630Z,3.7
2019-02-23T07:21:11.181Z,3.2
2019-02-23T07:22:15.141Z,3.8
2019-02-23T07:23:11.669Z,4.8
2019-02-23T07:24:11.266Z,4.6
2019-02-23T07:25:11.144Z,3.4
2019-02-23T07:26:11.536Z,4.5
2019-02-23T07:27:11.124Z,8.4
2019-02-23T07:28:11.354Z,3.5
2019-02-23T07:29:11.310Z,3.9
2019-02-23T07:30:11.178Z,3.7
2019-02-23T07:31:11.119Z,3.5
2019-02-23T07:32:11.200Z,3.7
2019-02-23T07:33:11.756Z,3.9
2019-02-23T07:34:11.981Z,3.6
2019-02-23T07:35:11.792Z,4.1
2019-02-23T07:36:11.722Z,4.6
2019-02-23T07:37:11.293Z,3.6
2019-02-23T07:38:12.037Z,4.4
2019-02-23T07:39:11.218Z,4.3
2019-02-23T07:40:11.833Z,3.3
2019-02-23T07:41:11.412Z,3.5
2019-02-23T07:42:11.549Z,4.8
2019-02-23T07:43:11.597Z,4.8
2019-02-23T07:44:11.862Z,3.3
2019-02-23T07:45:11.515Z,3.4
2019-02-23T07:46:11.411Z,3.1
2019-02-23T07:47:12.199Z,3.5
2019-02-23T07:48:11.323Z,3.7
2019-02-23T07:49:11.842Z,3.6
2019-02-23T07:50:11.210Z,4.3
2019-02-23T07:51:11.708Z,3.1
2019-02-23T07:52:11.863Z,3.4
2019-02-23T07:53:11.171Z,3.3
2019-02-23T07:54:11.364Z,3.4
2019-02-23T07:55:11.295Z,3.0
2019-02-23T07:56:11.263Z,3.5
2019-02-23T07:57:11.408Z,3.4
2019-02-23T07:58:11.205Z,4.6
2019-02-23T07:59:11.471Z,3.1
2019-02-23T08:00:11.224Z,3.2
2019-02-23T08:01:11.530Z,4.1
2019-02-23T08:02:11.433Z,4.7
2019-02-23T08:03:13.066Z,3.5
2019-02-23T08:04:12.522Z,3.4
2019-02-23T08:05:12.431Z,3.4
2019-02-23T08:06:11.722Z,3.3
2019-02-23T08:07:11.948Z,3.9
2019-02-23T08:08:11.872Z,3.3
2019-02-23T08:09:11.402Z,4.4
2019-02-23T08:10:11.844Z,3.6
2019-02-23T08:11:11.786Z,6.5
2019-02-23T08:12:12.596Z,6.2
2019-02-23T08:13:11.688Z,4.2
2019-02-23T08:14:11.641Z,5.6
2019-02-23T08:15:11.254Z,5.1
2019-02-23T08:16:11.402Z,4.0
2019-02-23T08:17:13.653Z,5.5
2019-02-23T08:18:11.253Z,4.1
2019-02-23T08:19:11.688Z,5.2
2019-02-23T08:20:11.306Z,5.0
2019-02-23T08:21:11.392Z,5.9
2019-02-23T08:22:12.541Z,4.3
2019-02-23T08:23:12.272Z,3.8
2019-02-23T08:24:12.920Z,4.8
2019-02-23T08:25:11.511Z,4.1
2019-02-23T08:26:11.471Z,4.2
2019-02-23T08:27:12.147Z,3.8
2019-02-23T08:28:11.745Z,4.4
2019-02-23T08:29:12.819Z,6.2
2019-02-23T08:30:12.672Z,4.3
2019-02-23T08:31:13.298Z,3.8
2019-02-23T08:32:12.568Z,4.2
2019-02-23T08:33:12.427Z,3.9
2019-02-23T08:34:12.881Z,3.4
2019-02-23T08:35:11.320Z,4.2
2019-02-23T08:36:11.258Z,3.1
2019-02-23T08:37:12.713Z,4.3
2019-02-23T08:38:12.344Z,3.6
2019-02-23T08:39:11.379Z,4.7
2019-02-23T08:40:12.054Z,3.5
2019-02-23T08:41:11.303Z,4.7
2019-02-23T08:42:12.546Z,3.8
2019-02-23T08:43:12.274Z,4.1
2019-02-23T08:44:12.375Z,4.6
2019-02-23T08:45:13.307Z,3.6
2019-02-23T08:46:15.391Z,3.4
2019-02-23T08:47:12.153Z,4.2
2019-02-23T08:48:11.969Z,4.1
2019-02-23T08:49:11.797Z,3.2
2019-02-23T08:50:12.021Z,5.0
2019-02-23T08:51:11.618Z,3.5
2019-02-23T08:52:12.672Z,3.1
2019-02-23T08:53:11.344Z,3.1
2019-02-23T08:54:11.293Z,3.1
2019-02-23T08:55:11.243Z,3.5
2019-02-23T08:56:12.628Z,3.3
2019-02-23T08:57:11.915Z,3.3
2019-02-23T08:58:11.504Z,3.3
2019-02-23T08:59:11.693Z,3.3
2019-02-23T09:00:11.801Z,3.8
2019-02-23T09:01:11.768Z,4.0
2019-02-23T09:02:11.496Z,4.2
2019-02-23T09:03:12.410Z,4.6
2019-02-23T09:04:11.882Z,4.0
2019-02-23T09:05:11.442Z,4.9
2019-02-23T09:06:12.419Z,4.9
2019-02-23T09:07:13.097Z,3.5
2019-02-23T09:08:12.213Z,4.6
2019-02-23T09:09:11.277Z,4.4
2019-02-23T09:10:11.947Z,4.0
2019-02-23T09:11:12.503Z,4.6
2019-02-23T09:12:11.792Z,3.7
2019-02-23T09:13:11.639Z,3.6
2019-02-23T09:14:11.660Z,4.8
2019-02-23T09:15:11.598Z,4.5
2019-02-23T09:16:11.588Z,3.8
2019-02-23T09:17:11.797Z,3.4
2019-02-23T09:18:12.843Z,3.9
2019-02-23T09:19:11.771Z,3.8
2019-02-23T09:20:12.264Z,4.7
2019-02-23T09:21:11.348Z,5.3
2019-02-23T09:22:15.310Z,4.5
2019-02-23T09:23:11.551Z,3.7
2019-02-23T09:24:11.949Z,3.6
2019-02-23T09:25:12.551Z,3.5
2019-02-23T09:26:12.653Z,4.3
2019-02-23T09:27:13.677Z,4.7
2019-02-23T09:28:17.535Z,4.7
2019-02-23T09:29:12.212Z,3.5
2019-02-23T09:30:11.377Z,3.5
2019-02-23T09:31:11.800Z,3.7
2019-02-23T09:32:11.620Z,3.6
2019-02-23T09:33:11.394Z,4.1
2019-02-23T09:34:11.564Z,3.8
2019-02-23T09:35:11.434Z,3.7
2019-02-23T09:36:11.683Z,3.3
2019-02-23T09:37:11.936Z,3.3
2019-02-23T09:38:11.397Z,8.0
2019-02-23T09:39:11.554Z,8.5
2019-02-23T09:40:11.921Z,10.0
2019-02-23T09:41:12.294Z,9.2
2019-02-23T09:42:11.545Z,7.7
2019-02-23T09:43:11.495Z,7.3
2019-02-23T09:44:11.576Z,6.4
2019-02-23T09:45:11.515Z,6.1
2019-02-23T09:46:11.756Z,5.7
2019-02-23T09:47:11.309Z,7.4
2019-02-23T09:48:11.510Z,5.2
2019-02-23T09:49:11.402Z,6.0
2019-02-23T09:50:11.754Z,5.6
2019-02-23T09:51:11.306Z,5.2
2019-02-23T09:52:13.577Z,5.4
2019-02-23T09:53:12.008Z,5.9
2019-02-23T09:54:11.566Z,8.2
2019-02-23T09:55:11.855Z,7.2
2019-02-23T09:56:11.501Z,6.6
2019-02-23T09:57:13.190Z,6.9
2019-02-23T09:58:12.919Z,7.3
2019-02-23T09:59:11.695Z,6.9
2019-02-23T10:00:11.467Z,5.9
2019-02-23T10:01:11.981Z,6.2
2019-02-23T10:02:11.923Z,5.2
2019-02-23T10:03:11.498Z,6.4
2019-02-23T10:04:12.063Z,5.9
2019-02-23T10:05:11.719Z,5.4
2019-02-23T10:06:11.965Z,6.6
2019-02-23T10:07:11.744Z,7.3
2019-02-23T10:08:12.215Z,8.7
2019-02-23T10:09:11.433Z,4.7
2019-02-23T10:10:11.441Z,8.9
2019-02-23T10:11:11.403Z,4.7
2019-02-23T10:12:11.965Z,4.8
2019-02-23T10:13:12.383Z,5.6
2019-02-23T10:14:12.618Z,7.7
2019-02-23T10:15:11.656Z,5.3
2019-02-23T10:16:11.902Z,4.9
2019-02-23T10:17:11.478Z,4.6
2019-02-23T10:18:13.634Z,6.2
2019-02-23T10:19:11.495Z,4.8
2019-02-23T10:20:11.606Z,4.5
2019-02-23T10:21:11.527Z,5.2
2019-02-23T10:22:11.605Z,5.8
2019-02-23T10:23:21.402Z,6.3
2019-02-23T10:24:11.895Z,6.0
2019-02-23T10:25:11.970Z,4.1
2019-02-23T10:26:11.461Z,5.1
2019-02-23T10:27:11.430Z,4.2
2019-02-23T10:28:12.485Z,4.6
2019-02-23T10:29:11.489Z,4.7
2019-02-23T10:30:11.526Z,3.9
2019-02-23T10:31:11.796Z,6.6
2019-02-23T10:32:11.745Z,4.1
2019-02-23T10:33:11.539Z,4.3
2019-02-23T10:34:11.719Z,3.7
2019-02-23T10:35:11.973Z,3.8
2019-02-23T10:36:11.996Z,3.8
2019-02-23T10:37:11.637Z,4.9
2019-02-23T10:38:24.431Z,4.8
2019-02-23T10:39:13.038Z,4.1
2019-02-23T10:40:12.008Z,4.2
2019-02-23T10:41:13.673Z,3.7
2019-02-23T10:42:11.751Z,4.3
2019-02-23T10:43:12.205Z,3.8
2019-02-23T10:44:11.497Z,4.7
2019-02-23T10:45:11.737Z,4.1
2019-02-23T10:46:12.237Z,4.2
2019-02-23T10:47:11.524Z,4.0
2019-02-23T10:48:21.766Z,4.4
2019-02-23T10:49:11.458Z,4.1
2019-02-23T10:50:11.502Z,5.9
2019-02-23T10:51:11.704Z,5.3
2019-02-23T10:54:37.716Z,4.0
2019-02-23T10:55:37.215Z,3.9
2019-02-23T10:56:36.454Z,3.6
2019-02-23T10:57:36.711Z,3.7
2019-02-23T10:58:36.568Z,3.6
2019-02-23T10:59:36.452Z,3.5
2019-02-23T11:00:36.658Z,4.0
2019-02-23T11:01:36.886Z,3.7
2019-02-23T11:02:36.894Z,4.1
2019-02-23T11:03:36.925Z,4.6
2019-02-23T11:04:36.457Z,4.5
2019-02-23T11:05:36.464Z,4.7
2019-02-23T11:06:38.437Z,4.6
2019-02-23T11:07:36.701Z,4.3
2019-02-23T11:08:38.283Z,4.3
2019-02-23T11:09:36.678Z,4.3
2019-02-23T11:10:36.497Z,4.6
2019-02-23T11:11:36.623Z,4.3
2019-02-23T11:12:36.481Z,4.0
2019-02-23T11:13:37.372Z,4.3
2019-02-23T11:14:36.968Z,4.3
2019-02-23T11:15:36.528Z,6.3
2019-02-23T11:16:36.515Z,4.6
2019-02-23T11:17:37.032Z,4.1
2019-02-23T11:18:36.550Z,4.5
2019-02-23T11:19:36.481Z,3.8
2019-02-23T11:20:37.005Z,4.2
2019-02-23T11:21:37.207Z,3.9
2019-02-23T11:22:37.537Z,4.2
2019-02-23T11:23:43.522Z,3.9
2019-02-23T11:24:36.598Z,4.8
2019-02-23T11:25:36.641Z,4.1
2019-02-23T11:26:37.280Z,3.8
2019-02-23T11:27:36.576Z,4.0
2019-02-23T11:28:36.543Z,3.8
2019-02-23T11:29:36.626Z,4.0
2019-02-23T11:30:37.032Z,3.7
2019-02-23T11:31:36.952Z,4.2
2019-02-23T11:32:36.977Z,3.6
2019-02-23T11:33:36.585Z,4.3
2019-02-23T11:34:36.601Z,3.6
2019-02-23T11:35:37.349Z,3.7
2019-02-23T11:36:36.577Z,3.9
2019-02-23T11:37:36.549Z,4.0
2019-02-23T11:38:36.846Z,4.0
2019-02-23T11:39:37.215Z,3.6
2019-02-23T11:40:36.917Z,3.7
2019-02-23T11:41:37.378Z,3.5
2019-02-23T11:42:36.912Z,4.7
2019-02-23T11:43:36.981Z,3.7
2019-02-23T11:44:36.595Z,3.9
2019-02-23T11:45:37.993Z,3.3
2019-02-23T11:46:36.980Z,3.5
2019-02-23T11:47:37.204Z,4.3
2019-02-23T11:48:36.599Z,6.6
2019-02-23T11:49:37.074Z,4.3
2019-02-23T11:53:55.360Z,4.4
2019-02-23T11:54:08.041Z,4.4
2019-02-23T11:55:09.030Z,4.3
2019-02-23T11:56:09.009Z,3.6
2019-02-23T11:57:09.314Z,4.4
2019-02-23T11:58:09.223Z,4.5
2019-02-23T11:59:08.901Z,3.8
2019-02-23T12:00:09.077Z,4.9
2019-02-23T12:01:08.996Z,4.2
2019-02-23T12:02:09.538Z,4.0
2019-02-23T12:03:09.024Z,4.6
2019-02-23T12:04:08.978Z,4.6
2019-02-23T12:05:09.519Z,4.3
2019-02-23T12:06:08.834Z,4.0
2019-02-23T12:07:09.321Z,4.0
2019-02-23T12:08:09.353Z,3.6
2019-02-23T12:09:09.048Z,4.7
2019-02-23T12:10:08.772Z,4.1
2019-02-23T12:11:08.796Z,3.9
2019-02-23T12:12:08.946Z,3.7
2019-02-23T12:13:09.051Z,3.9
2019-02-23T12:14:09.366Z,4.0
2019-02-23T12:15:08.905Z,3.6
2019-02-23T12:16:08.927Z,3.4
2019-02-23T12:17:08.950Z,3.9
2019-02-23T12:18:08.866Z,3.5
2019-02-23T12:19:08.854Z,3.5
2019-02-23T12:20:09.407Z,3.5
2019-02-23T12:21:09.912Z,3.2
2019-02-23T12:22:15.254Z,3.5
2019-02-23T12:23:09.077Z,4.0
2019-02-23T12:24:09.033Z,3.1
2019-02-23T12:25:09.124Z,3.3
2019-02-23T12:26:09.518Z,3.5
2019-02-23T12:27:08.884Z,3.6
2019-02-23T12:28:08.762Z,4.6
2019-02-23T12:29:09.293Z,4.1
2019-02-23T12:30:09.000Z,3.4
2019-02-23T12:31:09.503Z,4.1
2019-02-23T12:32:09.456Z,3.5
2019-02-23T12:33:09.131Z,3.6
2019-02-23T12:34:09.320Z,3.3
2019-02-23T12:35:09.240Z,3.2
2019-02-23T12:36:11.389Z,4.0
2019-02-23T12:37:08.954Z,3.4
2019-02-23T12:38:15.097Z,4.1
2019-02-23T12:39:09.088Z,4.0
2019-02-23T12:40:08.801Z,4.5
2019-02-23T12:41:09.402Z,4.2
2019-02-23T12:42:09.005Z,4.7
2019-02-23T12:43:09.072Z,7.5
2019-02-23T12:44:09.049Z,3.9
2019-02-23T12:45:09.095Z,5.5
2019-02-23T12:46:08.806Z,5.0
2019-02-23T12:47:10.034Z,3.6
2019-02-23T12:48:09.288Z,4.9
2019-02-23T12:49:09.885Z,3.6
2019-02-23T12:50:08.804Z,4.2
2019-02-23T12:51:10.360Z,3.7
2019-02-23T12:52:09.207Z,3.8
2019-02-23T12:53:09.622Z,4.0
2019-02-23T12:54:16.359Z,3.6
2019-02-23T12:55:08.853Z,3.9
2019-02-23T12:56:08.800Z,3.6
2019-02-23T12:57:08.776Z,3.4
2019-02-23T12:58:08.840Z,4.2
2019-02-23T12:59:20.307Z,3.9
2019-02-23T13:00:08.763Z,3.6
2019-02-23T13:01:08.805Z,3.9
2019-02-23T13:02:10.378Z,3.6
2019-02-23T13:03:08.825Z,4.0
2019-02-23T13:04:08.911Z,4.4
2019-02-23T13:05:09.937Z,3.5
2019-02-23T13:06:09.087Z,3.4
2019-02-23T13:07:09.218Z,3.1
2019-02-23T13:08:09.779Z,4.1
2019-02-23T13:09:10.205Z,3.4
2019-02-23T13:10:11.221Z,3.0
2019-02-23T13:11:09.899Z,3.5
2019-02-23T13:12:08.818Z,3.3
2019-02-23T13:13:08.831Z,3.4
2019-02-23T13:14:08.871Z,3.3
2019-02-23T13:15:09.371Z,3.0
2019-02-23T13:16:08.894Z,4.1
2019-02-23T13:17:09.316Z,3.5
2019-02-23T13:18:08.938Z,3.2
2019-02-23T13:19:08.874Z,3.2
2019-02-23T13:20:09.319Z,3.5
2019-02-23T13:21:10.147Z,3.3
2019-02-23T13:22:09.310Z,3.5
2019-02-23T13:23:08.854Z,4.0
2019-02-23T13:24:09.235Z,3.5
2019-02-23T13:25:08.993Z,3.4
2019-02-23T13:26:08.889Z,4.6
2019-02-23T13:27:09.864Z,3.5
2019-02-23T13:28:10.087Z,3.3
2019-02-23T13:29:09.128Z,3.5
2019-02-23T13:30:10.599Z,3.4
2019-02-23T13:31:08.958Z,3.9
2019-02-23T13:32:09.373Z,3.6
2019-02-23T13:33:09.062Z,3.7
2019-02-23T13:34:09.027Z,3.3
2019-02-23T13:35:08.918Z,4.1
2019-02-23T13:36:08.786Z,3.2
2019-02-23T13:37:08.890Z,3.5
2019-02-23T13:38:09.644Z,3.3
2019-02-23T13:39:08.890Z,3.5
2019-02-23T13:40:09.296Z,3.1
2019-02-23T13:41:09.123Z,3.0
2019-02-23T13:42:08.896Z,3.3
2019-02-23T13:43:09.043Z,3.2
2019-02-23T13:44:09.989Z,3.4
2019-02-23T13:45:10.046Z,3.8
2019-02-23T13:46:08.873Z,3.2
2019-02-23T13:47:09.172Z,3.2
2019-02-23T13:48:10.433Z,3.1
2019-02-23T13:49:08.934Z,3.3
2019-02-23T13:50:08.858Z,3.4
2019-02-23T13:51:09.041Z,3.1